sensor_id;sensor_type;location;lat;lon;timestamp;temperature;humidity
34776;DHT22;20989;52.566;13.346;2023-04-05T00:00:43;19.30;44.50
34776;DHT22;20989;52.566;13.346;2023-04-05T00:03:43;19.20;44.70
34776;DHT22;20989;52.566;13.346;2023-04-05T00:06:44;19.30;44.40
34776;DHT22;20989;52.566;13.346;2023-04-05T00:09:46;19.20;44.40
34776;DHT22;20989;52.566;13.346;2023-04-05T00:12:46;19.20;44.80
34776;DHT22;20989;52.566;13.346;2023-04-05T00:15:48;19.20;44.40
34776;DHT22;20989;52.566;13.346;2023-04-05T00:18:49;19.20;44.50
34776;DHT22;20989;52.566;13.346;2023-04-05T00:21:50;19.20;44.40
34776;DHT22;20989;52.566;13.346;2023-04-05T00:24:53;19.20;45.00
34776;DHT22;20989;52.566;13.346;2023-04-05T00:27:54;19.20;44.40
34776;DHT22;20989;52.566;13.346;2023-04-05T00:30:55;19.20;44.40
34776;DHT22;20989;52.566;13.346;2023-04-05T00:33:55;19.20;44.50
34776;DHT22;20989;52.566;13.346;2023-04-05T00:36:56;19.20;44.40
34776;DHT22;20989;52.566;13.346;2023-04-05T00:39:57;19.20;44.60
34776;DHT22;20989;52.566;13.346;2023-04-05T00:42:57;19.20;44.50
34776;DHT22;20989;52.566;13.346;2023-04-05T00:45:58;19.20;44.40
34776;DHT22;20989;52.566;13.346;2023-04-05T00:48:59;19.20;44.50
34776;DHT22;20989;52.566;13.346;2023-04-05T00:52:00;19.20;44.50
34776;DHT22;20989;52.566;13.346;2023-04-05T00:55:01;19.20;44.70
34776;DHT22;20989;52.566;13.346;2023-04-05T00:58:02;19.20;44.40
34776;DHT22;20989;52.566;13.346;2023-04-05T01:01:18;19.20;44.40
34776;DHT22;20989;52.566;13.346;2023-04-05T01:04:26;19.20;44.60
34776;DHT22;20989;52.566;13.346;2023-04-05T01:07:47;19.20;44.60
34776;DHT22;20989;52.566;13.346;2023-04-05T01:10:59;19.20;44.50
34776;DHT22;20989;52.566;13.346;2023-04-05T01:14:01;19.20;44.40
34776;DHT22;20989;52.566;13.346;2023-04-05T01:17:02;19.20;44.60
34776;DHT22;20989;52.566;13.346;2023-04-05T01:20:05;19.20;45.00
34776;DHT22;20989;52.566;13.346;2023-04-05T01:23:41;19.10;44.50
34776;DHT22;20989;52.566;13.346;2023-04-05T01:26:57;19.10;44.70
34776;DHT22;20989;52.566;13.346;2023-04-05T01:33:12;19.10;44.70
34776;DHT22;20989;52.566;13.346;2023-04-05T01:39:27;19.10;45.00
34776;DHT22;20989;52.566;13.346;2023-04-05T01:42:29;19.10;44.40
34776;DHT22;20989;52.566;13.346;2023-04-05T01:45:30;19.10;44.60
34776;DHT22;20989;52.566;13.346;2023-04-05T01:48:31;19.10;44.50
34776;DHT22;20989;52.566;13.346;2023-04-05T01:51:32;19.10;44.50
34776;DHT22;20989;52.566;13.346;2023-04-05T01:54:32;19.10;44.50
34776;DHT22;20989;52.566;13.346;2023-04-05T01:57:33;19.10;44.40
34776;DHT22;20989;52.566;13.346;2023-04-05T02:00:33;19.10;44.50
34776;DHT22;20989;52.566;13.346;2023-04-05T02:03:34;19.10;44.50
34776;DHT22;20989;52.566;13.346;2023-04-05T02:06:35;19.10;44.60
34776;DHT22;20989;52.566;13.346;2023-04-05T02:09:36;19.10;44.80
34776;DHT22;20989;52.566;13.346;2023-04-05T02:12:36;19.10;44.70
34776;DHT22;20989;52.566;13.346;2023-04-05T02:15:37;19.10;44.50
34776;DHT22;20989;52.566;13.346;2023-04-05T02:18:38;19.10;44.60
34776;DHT22;20989;52.566;13.346;2023-04-05T02:21:39;19.10;44.60
34776;DHT22;20989;52.566;13.346;2023-04-05T02:24:40;19.10;44.70
34776;DHT22;20989;52.566;13.346;2023-04-05T02:27:41;19.10;44.50
34776;DHT22;20989;52.566;13.346;2023-04-05T02:30:41;19.10;44.60
34776;DHT22;20989;52.566;13.346;2023-04-05T02:33:42;19.10;44.60
34776;DHT22;20989;52.566;13.346;2023-04-05T02:36:42;19.10;44.60
34776;DHT22;20989;52.566;13.346;2023-04-05T02:39:43;19.10;44.70
34776;DHT22;20989;52.566;13.346;2023-04-05T02:42:44;19.10;44.70
34776;DHT22;20989;52.566;13.346;2023-04-05T02:45:45;19.10;44.60
34776;DHT22;20989;52.566;13.346;2023-04-05T02:48:45;19.10;44.70
34776;DHT22;20989;52.566;13.346;2023-04-05T02:51:46;19.10;44.70
34776;DHT22;20989;52.566;13.346;2023-04-05T02:54:47;19.10;44.60
34776;DHT22;20989;52.566;13.346;2023-04-05T02:57:47;19.00;44.60
34776;DHT22;20989;52.566;13.346;2023-04-05T03:00:49;19.00;44.70
34776;DHT22;20989;52.566;13.346;2023-04-05T03:03:53;19.10;44.70
34776;DHT22;20989;52.566;13.346;2023-04-05T03:06:54;19.00;44.70
34776;DHT22;20989;52.566;13.346;2023-04-05T03:09:56;19.10;45.00
34776;DHT22;20989;52.566;13.346;2023-04-05T03:12:57;19.10;44.70
34776;DHT22;20989;52.566;13.346;2023-04-05T03:15:58;19.00;44.90
34776;DHT22;20989;52.566;13.346;2023-04-05T03:18:59;19.00;44.70
34776;DHT22;20989;52.566;13.346;2023-04-05T03:22:00;19.00;44.80
34776;DHT22;20989;52.566;13.346;2023-04-05T03:25:01;19.00;44.90
34776;DHT22;20989;52.566;13.346;2023-04-05T03:28:03;19.00;44.80
34776;DHT22;20989;52.566;13.346;2023-04-05T03:31:05;19.00;44.80
34776;DHT22;20989;52.566;13.346;2023-04-05T03:34:05;19.00;44.80
34776;DHT22;20989;52.566;13.346;2023-04-05T03:37:06;19.00;44.80
34776;DHT22;20989;52.566;13.346;2023-04-05T03:40:07;19.00;44.80
34776;DHT22;20989;52.566;13.346;2023-04-05T03:43:10;19.00;44.80
34776;DHT22;20989;52.566;13.346;2023-04-05T03:46:10;19.00;44.80
34776;DHT22;20989;52.566;13.346;2023-04-05T03:49:11;19.00;44.80
34776;DHT22;20989;52.566;13.346;2023-04-05T03:52:12;19.00;44.80
34776;DHT22;20989;52.566;13.346;2023-04-05T03:55:12;19.00;44.80
34776;DHT22;20989;52.566;13.346;2023-04-05T03:58:14;19.00;44.80
34776;DHT22;20989;52.566;13.346;2023-04-05T04:01:15;19.00;44.80
34776;DHT22;20989;52.566;13.346;2023-04-05T04:04:16;19.00;45.10
34776;DHT22;20989;52.566;13.346;2023-04-05T04:07:16;19.00;44.80
34776;DHT22;20989;52.566;13.346;2023-04-05T04:10:17;19.00;44.80
34776;DHT22;20989;52.566;13.346;2023-04-05T04:13:18;19.00;44.90
34776;DHT22;20989;52.566;13.346;2023-04-05T04:16:19;19.00;44.90
34776;DHT22;20989;52.566;13.346;2023-04-05T04:19:19;19.00;44.80
34776;DHT22;20989;52.566;13.346;2023-04-05T04:22:20;18.90;44.80
34776;DHT22;20989;52.566;13.346;2023-04-05T04:25:22;19.00;44.90
34776;DHT22;20989;52.566;13.346;2023-04-05T04:28:22;19.00;44.90
34776;DHT22;20989;52.566;13.346;2023-04-05T04:31:24;19.00;45.00
34776;DHT22;20989;52.566;13.346;2023-04-05T04:34:25;19.00;44.90
34776;DHT22;20989;52.566;13.346;2023-04-05T04:37:25;19.00;44.90
34776;DHT22;20989;52.566;13.346;2023-04-05T04:43:39;19.00;45.00
34776;DHT22;20989;52.566;13.346;2023-04-05T04:46:43;18.90;44.90
34776;DHT22;20989;52.566;13.346;2023-04-05T04:49:43;19.00;45.00
34776;DHT22;20989;52.566;13.346;2023-04-05T04:52:45;18.90;44.90
34776;DHT22;20989;52.566;13.346;2023-04-05T04:55:46;18.90;44.90
34776;DHT22;20989;52.566;13.346;2023-04-05T04:58:52;18.90;45.00
34776;DHT22;20989;52.566;13.346;2023-04-05T05:01:52;18.90;44.90
34776;DHT22;20989;52.566;13.346;2023-04-05T05:04:53;18.90;45.60
34776;DHT22;20989;52.566;13.346;2023-04-05T05:07:54;18.90;44.90
34776;DHT22;20989;52.566;13.346;2023-04-05T05:10:54;18.90;44.90
34776;DHT22;20989;52.566;13.346;2023-04-05T05:13:56;19.00;44.90
34776;DHT22;20989;52.566;13.346;2023-04-05T05:16:56;19.10;44.90
34776;DHT22;20989;52.566;13.346;2023-04-05T05:19:58;19.10;45.00
34776;DHT22;20989;52.566;13.346;2023-04-05T05:23:03;19.20;45.10
34776;DHT22;20989;52.566;13.346;2023-04-05T05:26:04;19.30;44.90
34776;DHT22;20989;52.566;13.346;2023-04-05T05:29:05;19.20;45.30
34776;DHT22;20989;52.566;13.346;2023-04-05T05:32:07;19.30;44.80
34776;DHT22;20989;52.566;13.346;2023-04-05T05:35:09;19.30;45.10
34776;DHT22;20989;52.566;13.346;2023-04-05T05:38:09;19.30;45.30
34776;DHT22;20989;52.566;13.346;2023-04-05T05:41:10;19.30;45.40
34776;DHT22;20989;52.566;13.346;2023-04-05T05:44:11;19.30;45.10
34776;DHT22;20989;52.566;13.346;2023-04-05T05:47:12;19.30;45.20
34776;DHT22;20989;52.566;13.346;2023-04-05T05:50:13;19.30;45.00
34776;DHT22;20989;52.566;13.346;2023-04-05T05:53:16;19.30;45.10
34776;DHT22;20989;52.566;13.346;2023-04-05T05:56:16;19.40;45.20
34776;DHT22;20989;52.566;13.346;2023-04-05T05:59:17;19.30;45.00
34776;DHT22;20989;52.566;13.346;2023-04-05T06:02:18;19.20;44.20
34776;DHT22;20989;52.566;13.346;2023-04-05T06:05:19;19.20;44.50
34776;DHT22;20989;52.566;13.346;2023-04-05T06:08:19;19.20;44.60
34776;DHT22;20989;52.566;13.346;2023-04-05T06:11:20;19.20;44.70
34776;DHT22;20989;52.566;13.346;2023-04-05T06:14:23;19.20;44.30
34776;DHT22;20989;52.566;13.346;2023-04-05T06:17:24;19.10;45.00
34776;DHT22;20989;52.566;13.346;2023-04-05T06:20:25;19.10;44.50
34776;DHT22;20989;52.566;13.346;2023-04-05T06:23:25;19.10;44.70
34776;DHT22;20989;52.566;13.346;2023-04-05T06:26:26;19.10;44.60
34776;DHT22;20989;52.566;13.346;2023-04-05T06:29:29;19.10;44.40
34776;DHT22;20989;52.566;13.346;2023-04-05T06:32:30;19.10;44.70
34776;DHT22;20989;52.566;13.346;2023-04-05T06:35:31;19.00;44.90
34776;DHT22;20989;52.566;13.346;2023-04-05T06:38:31;19.10;44.80
34776;DHT22;20989;52.566;13.346;2023-04-05T06:41:32;19.00;44.70
34776;DHT22;20989;52.566;13.346;2023-04-05T06:44:33;19.00;44.70
34776;DHT22;20989;52.566;13.346;2023-04-05T06:47:34;19.00;44.80
34776;DHT22;20989;52.566;13.346;2023-04-05T06:50:35;19.00;44.60
34776;DHT22;20989;52.566;13.346;2023-04-05T06:53:36;19.00;44.80
34776;DHT22;20989;52.566;13.346;2023-04-05T06:56:37;19.00;44.80
34776;DHT22;20989;52.566;13.346;2023-04-05T06:59:38;19.00;45.10
34776;DHT22;20989;52.566;13.346;2023-04-05T07:02:40;19.00;45.00
34776;DHT22;20989;52.566;13.346;2023-04-05T07:05:40;19.00;44.70
34776;DHT22;20989;52.566;13.346;2023-04-05T07:08:41;19.00;45.20
34776;DHT22;20989;52.566;13.346;2023-04-05T07:11:42;19.00;45.00
34776;DHT22;20989;52.566;13.346;2023-04-05T07:14:42;19.00;45.00
34776;DHT22;20989;52.566;13.346;2023-04-05T07:17:43;19.00;45.00
34776;DHT22;20989;52.566;13.346;2023-04-05T07:20:46;19.00;44.70
34776;DHT22;20989;52.566;13.346;2023-04-05T07:23:47;19.00;45.10
34776;DHT22;20989;52.566;13.346;2023-04-05T07:26:48;19.00;45.00
34776;DHT22;20989;52.566;13.346;2023-04-05T07:29:48;19.00;45.00
34776;DHT22;20989;52.566;13.346;2023-04-05T07:32:49;19.00;44.80
34776;DHT22;20989;52.566;13.346;2023-04-05T07:35:54;19.00;44.90
34776;DHT22;20989;52.566;13.346;2023-04-05T07:38:56;19.00;45.00
34776;DHT22;20989;52.566;13.346;2023-04-05T07:41:57;19.00;44.80
34776;DHT22;20989;52.566;13.346;2023-04-05T07:44:58;19.00;44.90
34776;DHT22;20989;52.566;13.346;2023-04-05T07:47:58;19.00;45.00
34776;DHT22;20989;52.566;13.346;2023-04-05T07:51:07;19.00;44.90
34776;DHT22;20989;52.566;13.346;2023-04-05T07:54:08;18.90;44.90
34776;DHT22;20989;52.566;13.346;2023-04-05T07:57:09;18.90;44.70
34776;DHT22;20989;52.566;13.346;2023-04-05T08:00:10;18.90;44.80
34776;DHT22;20989;52.566;13.346;2023-04-05T08:03:11;18.90;44.80
34776;DHT22;20989;52.566;13.346;2023-04-05T08:06:13;18.90;44.90
34776;DHT22;20989;52.566;13.346;2023-04-05T08:09:17;19.00;45.00
34776;DHT22;20989;52.566;13.346;2023-04-05T08:12:17;18.90;44.90
34776;DHT22;20989;52.566;13.346;2023-04-05T08:15:18;18.90;44.80
34776;DHT22;20989;52.566;13.346;2023-04-05T08:18:18;18.90;45.10
34776;DHT22;20989;52.566;13.346;2023-04-05T08:21:19;18.90;44.90
34776;DHT22;20989;52.566;13.346;2023-04-05T08:24:20;18.90;44.90
34776;DHT22;20989;52.566;13.346;2023-04-05T08:27:21;18.90;44.90
34776;DHT22;20989;52.566;13.346;2023-04-05T08:30:22;18.90;45.00
34776;DHT22;20989;52.566;13.346;2023-04-05T08:33:23;18.90;45.00
34776;DHT22;20989;52.566;13.346;2023-04-05T08:36:25;18.90;45.10
34776;DHT22;20989;52.566;13.346;2023-04-05T08:39:26;18.90;45.00
34776;DHT22;20989;52.566;13.346;2023-04-05T08:42:41;19.00;45.20
34776;DHT22;20989;52.566;13.346;2023-04-05T08:45:51;19.00;45.20
34776;DHT22;20989;52.566;13.346;2023-04-05T08:48:52;18.90;45.10
34776;DHT22;20989;52.566;13.346;2023-04-05T08:51:54;18.90;45.00
34776;DHT22;20989;52.566;13.346;2023-04-05T08:54:55;18.90;45.00
34776;DHT22;20989;52.566;13.346;2023-04-05T08:57:58;18.90;45.10
34776;DHT22;20989;52.566;13.346;2023-04-05T09:01:01;18.90;45.10
34776;DHT22;20989;52.566;13.346;2023-04-05T09:04:21;18.90;45.00
34776;DHT22;20989;52.566;13.346;2023-04-05T09:07:25;18.90;45.00
34776;DHT22;20989;52.566;13.346;2023-04-05T09:10:30;18.90;45.20
34776;DHT22;20989;52.566;13.346;2023-04-05T09:13:31;18.90;45.10
34776;DHT22;20989;52.566;13.346;2023-04-05T09:16:39;18.90;45.10
34776;DHT22;20989;52.566;13.346;2023-04-05T09:19:42;18.90;45.20
34776;DHT22;20989;52.566;13.346;2023-04-05T09:22:44;18.90;45.20
34776;DHT22;20989;52.566;13.346;2023-04-05T09:25:46;18.90;45.10
34776;DHT22;20989;52.566;13.346;2023-04-05T09:28:51;18.90;45.00
34776;DHT22;20989;52.566;13.346;2023-04-05T09:31:53;18.90;45.20
34776;DHT22;20989;52.566;13.346;2023-04-05T09:34:54;18.90;45.00
34776;DHT22;20989;52.566;13.346;2023-04-05T09:38:01;18.90;45.00
34776;DHT22;20989;52.566;13.346;2023-04-05T09:41:08;18.90;45.00
34776;DHT22;20989;52.566;13.346;2023-04-05T09:44:09;18.90;45.20
34776;DHT22;20989;52.566;13.346;2023-04-05T09:47:17;18.90;45.30
34776;DHT22;20989;52.566;13.346;2023-04-05T09:50:18;18.90;45.40
34776;DHT22;20989;52.566;13.346;2023-04-05T09:53:19;18.90;45.30
34776;DHT22;20989;52.566;13.346;2023-04-05T09:56:20;18.90;45.00
34776;DHT22;20989;52.566;13.346;2023-04-05T09:59:21;18.90;45.30
34776;DHT22;20989;52.566;13.346;2023-04-05T10:02:22;19.00;45.10
34776;DHT22;20989;52.566;13.346;2023-04-05T10:05:25;18.90;45.10
34776;DHT22;20989;52.566;13.346;2023-04-05T10:08:26;18.90;45.20
34776;DHT22;20989;52.566;13.346;2023-04-05T10:11:28;19.00;45.20
34776;DHT22;20989;52.566;13.346;2023-04-05T10:14:29;18.90;45.20
34776;DHT22;20989;52.566;13.346;2023-04-05T10:17:52;19.00;45.40
34776;DHT22;20989;52.566;13.346;2023-04-05T10:20:59;18.90;45.50
34776;DHT22;20989;52.566;13.346;2023-04-05T10:24:11;18.90;45.50
34776;DHT22;20989;52.566;13.346;2023-04-05T10:27:26;19.00;45.20
34776;DHT22;20989;52.566;13.346;2023-04-05T10:30:35;19.00;45.30
34776;DHT22;20989;52.566;13.346;2023-04-05T10:33:43;19.00;45.40
34776;DHT22;20989;52.566;13.346;2023-04-05T10:36:53;18.90;45.40
34776;DHT22;20989;52.566;13.346;2023-04-05T10:39:59;18.90;45.30
34776;DHT22;20989;52.566;13.346;2023-04-05T10:43:03;19.00;45.40
34776;DHT22;20989;52.566;13.346;2023-04-05T10:46:07;18.90;45.30
34776;DHT22;20989;52.566;13.346;2023-04-05T10:52:27;18.90;45.20
34776;DHT22;20989;52.566;13.346;2023-04-05T10:55:29;18.90;45.20
34776;DHT22;20989;52.566;13.346;2023-04-05T10:58:31;18.90;45.10
34776;DHT22;20989;52.566;13.346;2023-04-05T11:01:33;18.90;45.30
34776;DHT22;20989;52.566;13.346;2023-04-05T11:04:34;18.90;45.20
34776;DHT22;20989;52.566;13.346;2023-04-05T11:07:44;18.90;45.30
34776;DHT22;20989;52.566;13.346;2023-04-05T11:10:51;18.90;45.20
34776;DHT22;20989;52.566;13.346;2023-04-05T11:13:56;18.90;45.40
34776;DHT22;20989;52.566;13.346;2023-04-05T11:16:57;18.90;45.80
34776;DHT22;20989;52.566;13.346;2023-04-05T11:20:05;18.90;45.30
34776;DHT22;20989;52.566;13.346;2023-04-05T11:23:15;18.90;45.40
34776;DHT22;20989;52.566;13.346;2023-04-05T11:26:16;18.90;45.30
34776;DHT22;20989;52.566;13.346;2023-04-05T11:29:17;18.90;45.30
34776;DHT22;20989;52.566;13.346;2023-04-05T11:32:17;18.90;45.30
34776;DHT22;20989;52.566;13.346;2023-04-05T11:35:18;18.90;45.30
34776;DHT22;20989;52.566;13.346;2023-04-05T11:38:25;18.90;44.90
34776;DHT22;20989;52.566;13.346;2023-04-05T11:41:32;18.90;45.10
34776;DHT22;20989;52.566;13.346;2023-04-05T11:44:46;19.00;45.10
34776;DHT22;20989;52.566;13.346;2023-04-05T11:47:47;18.80;39.20
34776;DHT22;20989;52.566;13.346;2023-04-05T11:50:49;18.90;37.40
34776;DHT22;20989;52.566;13.346;2023-04-05T11:53:50;18.90;36.50
34776;DHT22;20989;52.566;13.346;2023-04-05T11:56:51;18.80;34.80
34776;DHT22;20989;52.566;13.346;2023-04-05T11:59:52;18.80;34.00
34776;DHT22;20989;52.566;13.346;2023-04-05T12:02:56;18.70;33.90
34776;DHT22;20989;52.566;13.346;2023-04-05T12:05:59;18.70;34.40
34776;DHT22;20989;52.566;13.346;2023-04-05T12:09:00;18.90;37.80
34776;DHT22;20989;52.566;13.346;2023-04-05T12:12:00;19.00;37.50
34776;DHT22;20989;52.566;13.346;2023-04-05T12:15:02;18.90;35.40
34776;DHT22;20989;52.566;13.346;2023-04-05T12:18:03;18.70;33.20
34776;DHT22;20989;52.566;13.346;2023-04-05T12:21:07;18.70;32.90
34776;DHT22;20989;52.566;13.346;2023-04-05T12:24:08;18.60;32.50
34776;DHT22;20989;52.566;13.346;2023-04-05T12:27:09;18.40;31.70
34776;DHT22;20989;52.566;13.346;2023-04-05T12:30:21;18.40;31.70
34776;DHT22;20989;52.566;13.346;2023-04-05T12:33:29;18.40;32.80
34776;DHT22;20989;52.566;13.346;2023-04-05T12:36:32;18.50;33.60
34776;DHT22;20989;52.566;13.346;2023-04-05T12:39:33;18.40;32.70
34776;DHT22;20989;52.566;13.346;2023-04-05T12:42:35;18.40;32.90
34776;DHT22;20989;52.566;13.346;2023-04-05T12:45:36;18.40;32.70
34776;DHT22;20989;52.566;13.346;2023-04-05T12:48:41;18.40;32.40
34776;DHT22;20989;52.566;13.346;2023-04-05T12:51:43;18.40;32.10
34776;DHT22;20989;52.566;13.346;2023-04-05T12:54:52;18.40;32.20
34776;DHT22;20989;52.566;13.346;2023-04-05T12:57:59;18.60;35.20
34776;DHT22;20989;52.566;13.346;2023-04-05T13:01:00;18.70;35.50
34776;DHT22;20989;52.566;13.346;2023-04-05T13:04:01;18.80;36.00
34776;DHT22;20989;52.566;13.346;2023-04-05T13:07:04;18.80;36.50
34776;DHT22;20989;52.566;13.346;2023-04-05T13:10:05;18.80;36.40
34776;DHT22;20989;52.566;13.346;2023-04-05T13:13:06;18.80;36.90
34776;DHT22;20989;52.566;13.346;2023-04-05T13:16:07;18.80;37.50
34776;DHT22;20989;52.566;13.346;2023-04-05T13:19:07;18.90;38.20
34776;DHT22;20989;52.566;13.346;2023-04-05T13:22:08;19.00;38.40
34776;DHT22;20989;52.566;13.346;2023-04-05T13:25:09;19.00;38.00
34776;DHT22;20989;52.566;13.346;2023-04-05T13:28:10;19.00;38.30
34776;DHT22;20989;52.566;13.346;2023-04-05T13:31:11;19.00;38.70
34776;DHT22;20989;52.566;13.346;2023-04-05T13:34:12;19.00;38.30
34776;DHT22;20989;52.566;13.346;2023-04-05T13:37:12;19.10;38.60
34776;DHT22;20989;52.566;13.346;2023-04-05T13:40:13;19.10;39.20
34776;DHT22;20989;52.566;13.346;2023-04-05T13:43:14;19.00;39.40
34776;DHT22;20989;52.566;13.346;2023-04-05T13:46:14;19.00;39.20
34776;DHT22;20989;52.566;13.346;2023-04-05T13:49:15;19.00;39.50
34776;DHT22;20989;52.566;13.346;2023-04-05T13:52:16;19.00;39.80
34776;DHT22;20989;52.566;13.346;2023-04-05T13:55:17;19.00;40.10
34776;DHT22;20989;52.566;13.346;2023-04-05T13:58:18;19.00;39.80
34776;DHT22;20989;52.566;13.346;2023-04-05T14:01:18;19.00;40.20
34776;DHT22;20989;52.566;13.346;2023-04-05T14:04:19;19.00;40.30
34776;DHT22;20989;52.566;13.346;2023-04-05T14:07:21;19.00;40.50
34776;DHT22;20989;52.566;13.346;2023-04-05T14:10:21;19.00;40.50
34776;DHT22;20989;52.566;13.346;2023-04-05T14:13:23;19.00;40.70
34776;DHT22;20989;52.566;13.346;2023-04-05T14:16:24;19.00;40.60
34776;DHT22;20989;52.566;13.346;2023-04-05T14:19:24;19.00;40.50
34776;DHT22;20989;52.566;13.346;2023-04-05T14:22:25;19.00;41.10
34776;DHT22;20989;52.566;13.346;2023-04-05T14:25:26;19.00;40.80
34776;DHT22;20989;52.566;13.346;2023-04-05T14:28:27;19.00;40.90
34776;DHT22;20989;52.566;13.346;2023-04-05T14:31:27;19.10;41.00
34776;DHT22;20989;52.566;13.346;2023-04-05T14:34:28;19.00;41.10
34776;DHT22;20989;52.566;13.346;2023-04-05T14:37:29;19.00;41.40
34776;DHT22;20989;52.566;13.346;2023-04-05T14:40:30;19.00;41.10
34776;DHT22;20989;52.566;13.346;2023-04-05T14:43:31;19.00;41.30
34776;DHT22;20989;52.566;13.346;2023-04-05T14:46:31;19.00;41.30
34776;DHT22;20989;52.566;13.346;2023-04-05T14:49:32;19.00;41.50
34776;DHT22;20989;52.566;13.346;2023-04-05T14:52:33;19.00;41.40
34776;DHT22;20989;52.566;13.346;2023-04-05T14:55:34;19.10;41.60
34776;DHT22;20989;52.566;13.346;2023-04-05T14:58:35;19.10;41.80
34776;DHT22;20989;52.566;13.346;2023-04-05T15:01:35;19.10;41.50
34776;DHT22;20989;52.566;13.346;2023-04-05T15:04:37;19.10;41.50
34776;DHT22;20989;52.566;13.346;2023-04-05T15:07:38;19.00;41.50
34776;DHT22;20989;52.566;13.346;2023-04-05T15:10:39;19.00;41.50
34776;DHT22;20989;52.566;13.346;2023-04-05T15:13:41;19.00;41.50
34776;DHT22;20989;52.566;13.346;2023-04-05T15:16:42;19.00;42.00
34776;DHT22;20989;52.566;13.346;2023-04-05T15:19:43;19.00;41.10
34776;DHT22;20989;52.566;13.346;2023-04-05T15:22:44;19.10;41.80
34776;DHT22;20989;52.566;13.346;2023-04-05T15:25:45;19.20;41.70
34776;DHT22;20989;52.566;13.346;2023-04-05T15:28:46;19.20;41.70
34776;DHT22;20989;52.566;13.346;2023-04-05T15:31:47;19.20;41.70
34776;DHT22;20989;52.566;13.346;2023-04-05T15:34:47;19.30;42.30
34776;DHT22;20989;52.566;13.346;2023-04-05T15:37:48;19.40;42.40
34776;DHT22;20989;52.566;13.346;2023-04-05T15:40:49;19.40;42.10
34776;DHT22;20989;52.566;13.346;2023-04-05T15:43:51;19.40;42.10
34776;DHT22;20989;52.566;13.346;2023-04-05T15:46:52;19.40;42.60
34776;DHT22;20989;52.566;13.346;2023-04-05T15:49:53;19.40;42.40
34776;DHT22;20989;52.566;13.346;2023-04-05T15:52:54;19.50;41.70
34776;DHT22;20989;52.566;13.346;2023-04-05T15:55:55;19.50;42.60
34776;DHT22;20989;52.566;13.346;2023-04-05T15:58:57;19.60;42.20
34776;DHT22;20989;52.566;13.346;2023-04-05T16:01:58;19.70;42.50
34776;DHT22;20989;52.566;13.346;2023-04-05T16:04:59;19.60;42.70
34776;DHT22;20989;52.566;13.346;2023-04-05T16:07:59;19.50;43.10
34776;DHT22;20989;52.566;13.346;2023-04-05T16:11:00;19.50;43.30
34776;DHT22;20989;52.566;13.346;2023-04-05T16:14:02;19.50;43.20
34776;DHT22;20989;52.566;13.346;2023-04-05T16:17:03;19.50;43.50
34776;DHT22;20989;52.566;13.346;2023-04-05T16:20:04;19.50;43.30
34776;DHT22;20989;52.566;13.346;2023-04-05T16:23:05;19.50;42.90
34776;DHT22;20989;52.566;13.346;2023-04-05T16:26:06;19.60;42.80
34776;DHT22;20989;52.566;13.346;2023-04-05T16:29:07;19.60;42.80
34776;DHT22;20989;52.566;13.346;2023-04-05T16:32:08;19.70;42.70
34776;DHT22;20989;52.566;13.346;2023-04-05T16:35:08;19.70;42.90
34776;DHT22;20989;52.566;13.346;2023-04-05T16:38:09;19.80;42.90
34776;DHT22;20989;52.566;13.346;2023-04-05T16:41:10;19.80;42.10
34776;DHT22;20989;52.566;13.346;2023-04-05T16:44:11;19.90;41.90
34776;DHT22;20989;52.566;13.346;2023-04-05T16:47:11;19.90;42.10
34776;DHT22;20989;52.566;13.346;2023-04-05T16:50:12;19.90;42.10
34776;DHT22;20989;52.566;13.346;2023-04-05T16:53:13;20.00;42.20
34776;DHT22;20989;52.566;13.346;2023-04-05T16:56:14;19.90;42.70
34776;DHT22;20989;52.566;13.346;2023-04-05T16:59:15;19.70;43.10
34776;DHT22;20989;52.566;13.346;2023-04-05T17:02:16;19.80;43.00
34776;DHT22;20989;52.566;13.346;2023-04-05T17:05:17;19.90;42.70
34776;DHT22;20989;52.566;13.346;2023-04-05T17:08:18;19.80;42.50
34776;DHT22;20989;52.566;13.346;2023-04-05T17:11:19;19.70;43.10
34776;DHT22;20989;52.566;13.346;2023-04-05T17:14:20;19.70;43.20
34776;DHT22;20989;52.566;13.346;2023-04-05T17:17:21;19.70;43.40
34776;DHT22;20989;52.566;13.346;2023-04-05T17:20:22;19.70;43.30
34776;DHT22;20989;52.566;13.346;2023-04-05T17:23:23;19.70;43.30
34776;DHT22;20989;52.566;13.346;2023-04-05T17:26:24;19.60;43.30
34776;DHT22;20989;52.566;13.346;2023-04-05T17:29:25;19.60;43.50
34776;DHT22;20989;52.566;13.346;2023-04-05T17:32:27;19.70;43.50
34776;DHT22;20989;52.566;13.346;2023-04-05T17:35:27;19.70;43.40
34776;DHT22;20989;52.566;13.346;2023-04-05T17:38:28;19.70;43.20
34776;DHT22;20989;52.566;13.346;2023-04-05T17:41:29;19.70;43.50
34776;DHT22;20989;52.566;13.346;2023-04-05T17:44:30;19.60;43.50
34776;DHT22;20989;52.566;13.346;2023-04-05T17:47:32;19.60;43.40
34776;DHT22;20989;52.566;13.346;2023-04-05T17:50:35;19.60;42.80
34776;DHT22;20989;52.566;13.346;2023-04-05T17:53:35;19.60;43.50
34776;DHT22;20989;52.566;13.346;2023-04-05T17:56:36;19.60;43.30
34776;DHT22;20989;52.566;13.346;2023-04-05T17:59:37;19.70;43.50
34776;DHT22;20989;52.566;13.346;2023-04-05T18:02:39;19.70;43.40
34776;DHT22;20989;52.566;13.346;2023-04-05T18:05:40;19.70;43.60
34776;DHT22;20989;52.566;13.346;2023-04-05T18:08:41;19.70;43.30
34776;DHT22;20989;52.566;13.346;2023-04-05T18:11:42;19.70;43.30
34776;DHT22;20989;52.566;13.346;2023-04-05T18:14:43;19.70;43.50
34776;DHT22;20989;52.566;13.346;2023-04-05T18:17:44;19.70;43.40
34776;DHT22;20989;52.566;13.346;2023-04-05T18:20:50;19.60;43.90
34776;DHT22;20989;52.566;13.346;2023-04-05T18:23:52;19.50;43.60
34776;DHT22;20989;52.566;13.346;2023-04-05T18:26:54;19.50;43.70
34776;DHT22;20989;52.566;13.346;2023-04-05T18:29:54;19.50;43.50
34776;DHT22;20989;52.566;13.346;2023-04-05T18:32:55;19.40;43.90
34776;DHT22;20989;52.566;13.346;2023-04-05T18:35:56;19.40;44.10
34776;DHT22;20989;52.566;13.346;2023-04-05T18:38:58;19.40;44.10
34776;DHT22;20989;52.566;13.346;2023-04-05T18:41:59;19.40;43.80
34776;DHT22;20989;52.566;13.346;2023-04-05T18:45:00;19.40;44.50
34776;DHT22;20989;52.566;13.346;2023-04-05T18:48:01;19.40;44.20
34776;DHT22;20989;52.566;13.346;2023-04-05T18:51:03;19.30;43.90
34776;DHT22;20989;52.566;13.346;2023-04-05T18:54:03;19.30;44.40
34776;DHT22;20989;52.566;13.346;2023-04-05T18:57:05;19.30;44.40
34776;DHT22;20989;52.566;13.346;2023-04-05T19:00:08;19.30;45.00
34776;DHT22;20989;52.566;13.346;2023-04-05T19:03:08;19.30;44.70